createdAt,value
2023-03-15T08:32:22.490Z,95123.00
2023-03-15T08:40:21.458Z,95119.00
2023-03-15T08:44:20.927Z,95116.00
2023-03-15T08:48:20.429Z,95114.00
2023-03-15T08:52:19.921Z,95110.00
2023-03-15T08:56:19.966Z,95106.00
2023-03-15T09:00:19.422Z,95104.00
2023-03-15T09:04:20.013Z,95110.00
2023-03-15T09:08:18.429Z,95100.00
2023-03-15T09:12:17.949Z,95096.00
2023-03-15T09:16:17.513Z,95092.00
2023-03-15T09:20:17.463Z,95084.00
2023-03-15T09:24:16.931Z,95080.00
2023-03-15T09:28:16.487Z,95082.00
2023-03-15T09:32:16.805Z,95070.00
2023-03-15T09:36:16.456Z,95069.00
2023-03-15T09:40:15.269Z,95072.00
2023-03-15T09:44:15.006Z,95076.00
2023-03-15T09:48:14.942Z,95074.00
2023-03-15T09:52:14.452Z,95069.00
2023-03-15T09:56:13.945Z,95069.00
2023-03-15T10:00:13.484Z,95069.00
2023-03-15T10:04:12.954Z,95067.00
2023-03-15T10:08:12.553Z,95070.00
2023-03-15T10:12:11.980Z,95067.00
2023-03-15T10:16:11.612Z,95067.00
2023-03-15T10:20:11.027Z,95063.00
2023-03-15T10:24:10.966Z,95063.00
2023-03-15T10:28:10.487Z,95067.00
2023-03-15T10:32:09.539Z,95067.00
2023-03-15T10:36:11.405Z,95067.00
2023-03-15T10:40:08.463Z,95059.00
2023-03-15T10:44:07.961Z,95059.00
2023-03-15T10:48:07.210Z,95059.00
2023-03-15T10:52:06.966Z,95057.00
2023-03-15T10:56:06.482Z,95055.00
2023-03-15T11:00:05.468Z,95051.00
2023-03-15T11:04:04.995Z,95051.00
2023-03-15T11:08:04.271Z,95059.00
2023-03-15T11:12:04.012Z,95061.00
2023-03-15T11:16:03.586Z,95055.00
2023-03-15T11:20:03.005Z,95067.00
2023-03-15T11:24:01.981Z,95067.00
2023-03-15T11:28:01.519Z,95067.00
2023-03-15T11:32:00.780Z,95072.00
2023-03-15T11:36:00.515Z,95069.00
2023-03-15T11:40:10.485Z,95065.00
2023-03-15T11:43:59.487Z,95053.00
2023-03-15T11:47:58.992Z,95055.00
2023-03-15T11:51:58.011Z,95057.00
2023-03-15T11:55:57.497Z,95065.00
2023-03-15T11:59:57.030Z,95051.00
2023-03-15T12:03:56.494Z,95049.00
2023-03-15T12:07:55.681Z,95049.00
2023-03-15T12:11:56.489Z,95043.00
2023-03-15T12:15:55.022Z,95047.00
2023-03-15T12:19:54.502Z,95041.00
2023-03-15T12:23:54.027Z,95039.00
2023-03-15T12:27:53.000Z,95031.00
2023-03-15T12:31:52.523Z,95033.00
2023-03-15T12:35:52.570Z,95027.00
2023-03-15T12:39:52.028Z,95029.00
2023-03-15T12:43:51.083Z,95025.00
2023-03-15T12:47:50.621Z,95025.00
2023-03-15T12:51:50.183Z,95027.00
2023-03-15T12:55:50.236Z,95019.00
2023-03-15T12:59:49.510Z,95014.00
2023-03-15T13:03:48.630Z,95021.00
2023-03-15T13:07:52.072Z,95027.00
2023-03-15T13:11:48.047Z,95008.00
2023-03-15T13:15:47.564Z,95006.00
2023-03-15T13:19:46.985Z,95004.00
2023-03-15T13:23:47.020Z,95023.00
2023-03-15T13:27:46.550Z,95014.00
2023-03-15T13:31:45.691Z,95019.00
2023-03-15T13:35:45.550Z,95017.00
2023-03-15T13:39:44.501Z,95015.00
2023-03-15T13:43:44.050Z,95015.00
2023-03-15T13:47:44.060Z,95021.00
2023-03-15T13:51:43.555Z,95027.00
2023-03-15T13:55:43.030Z,95031.00
2023-03-15T13:59:42.776Z,95031.00
2023-03-15T14:03:42.046Z,95033.00
2023-03-15T14:07:41.560Z,95043.00
2023-03-15T14:11:41.040Z,95041.00
2023-03-15T14:15:40.592Z,95047.00
2023-03-15T14:19:40.042Z,95053.00
2023-03-15T14:23:39.229Z,95067.00
2023-03-15T14:27:39.052Z,95055.00
2023-03-15T14:31:38.365Z,95059.00
2023-03-15T14:35:38.087Z,95055.00
2023-03-15T14:39:37.560Z,95053.00
2023-03-15T14:43:37.055Z,95069.00
2023-03-15T14:47:48.592Z,95076.00
2023-03-15T14:51:36.106Z,95080.00
2023-03-15T14:55:35.553Z,95090.00
2023-03-15T14:59:35.063Z,95098.00
2023-03-15T15:03:34.602Z,95098.00
2023-03-15T15:07:34.060Z,95100.00
2023-03-15T15:11:33.009Z,95094.00
2023-03-15T15:15:40.741Z,95090.00
2023-03-15T15:19:31.901Z,95086.00
2023-03-15T15:23:31.576Z,95084.00
2023-03-15T15:27:30.694Z,95080.00
2023-03-15T15:31:30.600Z,95084.00
2023-03-15T15:35:29.611Z,95088.00
2023-03-15T15:39:29.084Z,95092.00
2023-03-15T15:43:28.481Z,95102.00
2023-03-15T15:47:28.080Z,95108.00
2023-03-15T15:51:27.431Z,95102.00
2023-03-15T15:55:27.075Z,95100.00
2023-03-15T15:59:26.575Z,95106.00
2023-03-15T16:03:25.762Z,95106.00
2023-03-15T16:07:25.631Z,95117.00
2023-03-15T16:11:24.667Z,95121.00
2023-03-15T16:15:24.588Z,95131.00
2023-03-15T16:19:24.085Z,95143.00
2023-03-15T16:23:23.102Z,95139.00
2023-03-15T16:27:22.582Z,95149.00
2023-03-15T16:31:22.219Z,95153.00
2023-03-15T16:35:21.474Z,95157.00
2023-03-15T16:39:21.178Z,95157.00
2023-03-15T16:43:20.821Z,95163.00
2023-03-15T16:47:20.602Z,95172.00
2023-03-15T16:51:20.148Z,95174.00
2023-03-15T16:55:19.847Z,95192.00
2023-03-15T16:59:19.505Z,95194.00
2023-03-15T17:03:19.191Z,95196.00
2023-03-15T17:07:18.790Z,95204.00
2023-03-15T17:11:18.484Z,95214.00
2023-03-15T17:15:17.997Z,95217.00
2023-03-15T17:19:17.652Z,95223.00
2023-03-15T17:23:17.170Z,95229.00
2023-03-15T17:27:16.728Z,95243.00
2023-03-15T17:31:30.794Z,95253.00
2023-03-15T17:35:15.748Z,95261.00
2023-03-15T17:39:15.225Z,95259.00
2023-03-15T17:43:14.718Z,95255.00
2023-03-15T17:47:14.294Z,95257.00
2023-03-15T17:51:13.681Z,95261.00
2023-03-15T17:55:13.319Z,95270.00
2023-03-15T17:59:12.760Z,95274.00
2023-03-15T18:03:12.195Z,95272.00
2023-03-15T18:07:11.709Z,95276.00
2023-03-15T18:11:11.197Z,95282.00
2023-03-15T18:15:10.722Z,95286.00
2023-03-15T18:19:10.186Z,95286.00
2023-03-15T18:23:09.699Z,95278.00
2023-03-15T18:27:09.198Z,95284.00
2023-03-15T18:31:08.708Z,95286.00
2023-03-15T18:35:08.187Z,95288.00
2023-03-15T18:39:07.818Z,95300.00
2023-03-15T18:43:07.262Z,95300.00
2023-03-15T18:47:08.639Z,95296.00
2023-03-15T18:51:06.336Z,95298.00
2023-03-15T18:55:05.871Z,95298.00
2023-03-15T18:59:05.540Z,95302.00
2023-03-15T19:03:04.873Z,95310.00
2023-03-15T19:07:04.362Z,95314.00
2023-03-15T19:11:03.846Z,95312.00
2023-03-15T19:15:03.336Z,95318.00
2023-03-15T19:19:02.891Z,95318.00
2023-03-15T19:23:02.342Z,95319.00
2023-03-15T19:27:01.844Z,95321.00
2023-03-15T19:31:01.400Z,95327.00
2023-03-15T19:35:00.980Z,95325.00
2023-03-15T19:39:00.722Z,95319.00
2023-03-15T19:43:00.453Z,95316.00
2023-03-15T19:47:00.197Z,95310.00
2023-03-15T19:51:00.217Z,95310.00
2023-03-15T19:54:59.453Z,95310.00
2023-03-15T19:58:59.098Z,95312.00
2023-03-15T20:02:58.716Z,95304.00
2023-03-15T20:06:58.357Z,95306.00
2023-03-15T20:10:57.973Z,95308.00
2023-03-15T20:14:57.586Z,95310.00
2023-03-15T20:18:57.576Z,95316.00
2023-03-15T20:22:57.072Z,95312.00
2023-03-15T20:26:56.781Z,95312.00
2023-03-15T20:30:56.668Z,95316.00
2023-03-15T20:34:56.381Z,95318.00
2023-03-15T20:38:56.601Z,95319.00
2023-03-15T20:42:55.544Z,95323.00
2023-03-15T20:46:55.207Z,95333.00
2023-03-15T20:50:54.547Z,95335.00
2023-03-15T20:54:54.090Z,95337.00
2023-03-15T20:58:53.560Z,95349.00
2023-03-15T21:02:53.069Z,95359.00
2023-03-15T21:06:52.559Z,95363.00
2023-03-15T21:10:52.095Z,95365.00
2023-03-15T21:14:51.572Z,95374.00
2023-03-15T21:18:51.072Z,95378.00
2023-03-15T21:22:50.777Z,95386.00
2023-03-15T21:26:52.811Z,95396.00
2023-03-15T21:30:50.016Z,95382.00
2023-03-15T21:34:49.517Z,95384.00
2023-03-15T21:38:49.041Z,95382.00
2023-03-15T21:42:48.555Z,95378.00
2023-03-15T21:46:48.170Z,95370.00
2023-03-15T21:50:47.534Z,95369.00
2023-03-15T21:54:47.037Z,95367.00
2023-03-15T21:58:46.577Z,95365.00
2023-03-15T22:02:46.060Z,95365.00
2023-03-15T22:06:45.644Z,95370.00
2023-03-15T22:10:45.248Z,95376.00
2023-03-15T22:14:47.456Z,95380.00
2023-03-15T22:18:44.397Z,95378.00
2023-03-15T22:22:43.884Z,95374.00
2023-03-15T22:26:43.397Z,95376.00
2023-03-15T22:30:42.959Z,95374.00
2023-03-15T22:34:42.441Z,95376.00
2023-03-15T22:38:41.892Z,95386.00
2023-03-15T22:42:41.363Z,95400.00
2023-03-15T22:46:40.938Z,95406.00
2023-03-15T22:50:40.611Z,95404.00
2023-03-15T22:54:40.104Z,95404.00
2023-03-15T22:58:39.616Z,95396.00
2023-03-15T23:02:39.141Z,95398.00
2023-03-15T23:06:38.644Z,95384.00
2023-03-15T23:10:38.109Z,95396.00
2023-03-15T23:14:37.643Z,95398.00
2023-03-15T23:18:37.155Z,95404.00
2023-03-15T23:22:36.623Z,95402.00
2023-03-15T23:26:36.133Z,95402.00
2023-03-15T23:30:36.443Z,95408.00
2023-03-15T23:34:35.223Z,95414.00
2023-03-15T23:38:34.932Z,95419.00
2023-03-15T23:42:34.278Z,95418.00
2023-03-15T23:46:34.108Z,95412.00
2023-03-15T23:50:33.568Z,95418.00
2023-03-15T23:54:33.037Z,95421.00
2023-03-15T23:58:32.529Z,95421.00
